Time;durP1;ratioP1;P1;durP2;ratioP2;P2;SDS_P1;SDS_P2;PMS_P1;PMS_P2;Temp;Humidity;BMP_temperature;BMP_pressure;BME280_temperature;BME280_humidity;BME280_pressure;Samples;Min_cycle;Max_cycle;Signal;HPM_P1;HPM_P2
2021/04/04 00:00:23;;;;;;;9.35;4.38;;;4.10;99.90;;;;;;5061336;28;20802;-63
2021/04/04 00:02:49;;;;;;;12.47;4.20;;;5.40;99.90;;;;;;5068862;28;20396;-66
2021/04/04 00:05:15;;;;;;;10.17;4.10;;;4.00;99.90;;;;;;5067622;28;20423;-65
2021/04/04 00:07:41;;;;;;;9.52;3.92;;;3.90;99.90;;;;;;5068620;28;20388;-66
2021/04/04 00:10:10;;;;;;;9.02;4.00;;;5.30;99.90;;;;;;5063692;28;20910;-65
2021/04/04 00:12:37;;;;;;;9.80;4.45;;;3.90;99.90;;;;;;5042712;28;20411;-64
2021/04/04 00:15:05;;;;;;;9.45;4.50;;;3.90;99.90;;;;;;5051325;28;20383;-65
2021/04/04 00:17:31;;;;;;;7.60;4.00;;;3.90;99.90;;;;;;5069588;28;20422;-65
2021/04/04 00:19:56;;;;;;;9.13;3.90;;;5.20;99.90;;;;;;5064309;28;20404;-63
2021/04/04 00:22:22;;;;;;;11.10;3.90;;;3.80;99.90;;;;;;5062847;28;20396;-66
2021/04/04 00:24:48;;;;;;;10.53;4.07;;;3.80;99.90;;;;;;5064266;28;20494;-66
2021/04/04 00:27:13;;;;;;;12.05;4.22;;;3.80;99.90;;;;;;5067484;28;20415;-65
2021/04/04 00:29:39;;;;;;;9.73;4.20;;;3.80;99.90;;;;;;5061408;28;20952;-65
2021/04/04 00:32:05;;;;;;;10.47;4.40;;;5.10;99.90;;;;;;5067162;28;20491;-66
2021/04/04 00:34:30;;;;;;;10.85;5.00;;;3.70;99.90;;;;;;5069183;28;20474;-66
2021/04/04 00:36:56;;;;;;;10.02;4.00;;;4.80;99.90;;;;;;5067885;28;20390;-65
2021/04/04 00:39:22;;;;;;;11.15;4.25;;;4.60;99.90;;;;;;5067039;28;20396;-67
2021/04/04 00:41:48;;;;;;;8.98;4.57;;;3.70;99.90;;;;;;5068515;28;20849;-66
2021/04/04 00:44:14;;;;;;;8.40;4.13;;;3.60;99.90;;;;;;5065756;28;20384;-66
2021/04/04 00:46:40;;;;;;;11.83;4.10;;;3.60;99.90;;;;;;5051434;28;20433;-66
2021/04/04 00:49:06;;;;;;;8.63;3.90;;;6.40;99.90;;;;;;5072412;28;20524;-65
2021/04/04 00:51:36;;;;;;;8.85;4.50;;;4.10;99.90;;;;;;5071575;28;20503;-57
2021/04/04 00:54:03;;;;;;;9.85;4.80;;;3.30;99.90;;;;;;5073032;28;20383;-67
2021/04/04 00:56:29;;;;;;;11.63;5.28;;;3.10;99.90;;;;;;5070794;28;21016;-66
2021/04/04 00:58:56;;;;;;;9.45;4.55;;;3.50;99.90;;;;;;5071830;28;20527;-66
2021/04/04 01:01:22;;;;;;;9.10;4.60;;;3.00;99.90;;;;;;5069083;28;20403;-66
2021/04/04 01:03:48;;;;;;;9.15;4.88;;;4.30;99.90;;;;;;5072078;28;20436;-66
2021/04/04 01:06:14;;;;;;;13.02;5.00;;;2.90;99.90;;;;;;5065076;28;20448;-64
2021/04/04 01:08:40;;;;;;;9.48;4.60;;;2.90;99.90;;;;;;5071755;28;20407;-66
2021/04/04 01:11:08;;;;;;;11.95;4.70;;;2.80;99.90;;;;;;5065371;28;20416;-66
2021/04/04 01:13:46;;;;;;;9.38;5.00;;;2.90;99.90;;;;;;5071071;28;20565;-58
2021/04/04 01:16:21;;;;;;;13.97;5.33;;;3.00;99.90;;;;;;5070976;28;20408;-67
2021/04/04 01:19:11;;;;;;;10.60;5.30;;;3.40;99.90;;;;;;5064113;28;20528;-66
2021/04/04 01:21:42;;;;;;;10.52;4.65;;;3.00;99.90;;;;;;5067055;28;20472;-57
2021/04/04 01:24:16;;;;;;;10.40;5.30;;;2.90;99.90;;;;;;5052292;28;20389;-65
2021/04/04 01:26:54;;;;;;;10.30;4.82;;;2.90;99.90;;;;;;5069780;28;20440;-66
2021/04/04 01:29:22;;;;;;;10.03;4.80;;;2.90;99.90;;;;;;5070458;28;20734;-66
2021/04/04 01:31:51;;;;;;;10.20;4.68;;;3.00;99.90;;;;;;5054438;28;20401;-66
2021/04/04 01:34:19;;;;;;;11.40;5.18;;;2.80;99.90;;;;;;5068832;28;20427;-65
2021/04/04 01:36:47;;;;;;;10.20;4.78;;;5.50;99.90;;;;;;5070474;28;20423;-65
2021/04/04 01:39:15;;;;;;;10.50;4.80;;;4.30;99.90;;;;;;5069496;28;20481;-66
2021/04/04 01:41:43;;;;;;;12.07;5.35;;;3.90;99.90;;;;;;5070804;28;20403;-66
2021/04/04 01:44:13;;;;;;;12.20;4.80;;;2.70;99.90;;;;;;5070218;28;20388;-66
2021/04/04 01:46:40;;;;;;;10.73;4.97;;;2.50;99.90;;;;;;5071103;28;20396;-65
2021/04/04 01:49:06;;;;;;;9.50;4.57;;;2.40;99.90;;;;;;5068467;28;20411;-66
2021/04/04 01:51:33;;;;;;;11.45;5.63;;;2.40;99.90;;;;;;5071875;28;20392;-66
2021/04/04 01:54:02;;;;;;;12.82;4.70;;;2.80;99.90;;;;;;5068337;28;20387;-66
2021/04/04 01:56:28;;;;;;;10.55;5.18;;;2.40;99.90;;;;;;5055376;28;20392;-67
2021/04/04 01:58:55;;;;;;;11.90;5.13;;;2.40;99.90;;;;;;5067861;28;20424;-67
2021/04/04 02:01:22;;;;;;;11.52;4.90;;;2.40;99.90;;;;;;5071733;28;20403;-65
2021/04/04 02:03:48;;;;;;;11.57;5.33;;;2.40;99.90;;;;;;5070638;28;20942;-66
2021/04/04 02:06:16;;;;;;;9.68;4.28;;;5.10;99.90;;;;;;5071614;28;20383;-66
2021/04/04 02:08:43;;;;;;;10.15;4.80;;;4.80;99.90;;;;;;5070640;28;20450;-65
2021/04/04 02:11:11;;;;;;;9.90;4.60;;;2.20;99.90;;;;;;5071524;28;20427;-65
2021/04/04 02:13:37;;;;;;;8.85;4.35;;;2.20;99.90;;;;;;5059428;28;20818;-57
2021/04/04 02:16:05;;;;;;;9.90;4.40;;;3.70;99.90;;;;;;5069000;28;20426;-66
2021/04/04 02:18:32;;;;;;;9.77;4.47;;;1.90;99.90;;;;;;5070911;28;20441;-66
2021/04/04 02:20:59;;;;;;;14.55;5.10;;;2.00;99.90;;;;;;5070677;28;20905;-66
2021/04/04 02:23:26;;;;;;;8.43;4.20;;;4.20;99.90;;;;;;5067860;28;20866;-62
2021/04/04 02:25:56;;;;;;;8.13;4.20;;;3.20;99.90;;;;;;5053296;28;20419;-65
2021/04/04 02:28:23;;;;;;;9.85;4.45;;;2.10;99.90;;;;;;5071077;28;20400;-64
2021/04/04 02:30:50;;;;;;;10.25;4.63;;;3.80;99.90;;;;;;5069506;28;20396;-64
2021/04/04 02:33:42;;;;;;;10.00;4.38;;;3.30;99.90;;;;;;5065995;28;20870;-66
2021/04/04 02:36:11;;;;;;;14.98;4.80;;;3.20;99.90;;;;;;5069884;28;20449;-66
2021/04/04 02:38:41;;;;;;;9.47;4.90;;;4.70;99.90;;;;;;5068773;28;20411;-57
2021/04/04 02:41:09;;;;;;;9.40;4.05;;;2.30;99.90;;;;;;5067669;28;20392;-65
2021/04/04 02:43:37;;;;;;;10.82;4.20;;;2.20;99.90;;;;;;5070793;28;20396;-57
2021/04/04 02:46:06;;;;;;;10.52;4.40;;;4.30;99.90;;;;;;5070486;28;20388;-66
2021/04/04 02:48:35;;;;;;;10.90;4.30;;;4.20;99.90;;;;;;5058458;28;20388;-66
2021/04/04 02:51:04;;;;;;;11.27;4.40;;;3.60;99.90;;;;;;5070287;28;20383;-64
2021/04/04 02:53:36;;;;;;;10.85;4.40;;;2.10;99.90;;;;;;5070656;28;20433;-66
2021/04/04 02:56:03;;;;;;;9.43;3.90;;;2.10;99.90;;;;;;5057855;28;20398;-65
2021/04/04 02:58:32;;;;;;;8.35;3.97;;;2.20;99.90;;;;;;5035392;28;20494;-65
2021/04/04 03:01:00;;;;;;;10.00;4.60;;;2.30;99.90;;;;;;5049714;28;20386;-63
2021/04/04 03:03:29;;;;;;;11.10;4.80;;;2.20;99.90;;;;;;5050317;28;20442;-65
2021/04/04 03:05:58;;;;;;;10.27;4.40;;;2.20;99.90;;;;;;5049074;28;20393;-66
2021/04/04 03:08:25;;;;;;;9.88;4.20;;;2.20;99.90;;;;;;5050039;28;20393;-67
2021/04/04 03:10:52;;;;;;;8.43;3.90;;;2.10;99.90;;;;;;5047907;28;20393;-68
2021/04/04 03:13:22;;;;;;;10.85;4.32;;;3.50;99.90;;;;;;5048428;28;20397;-66
2021/04/04 03:15:50;;;;;;;7.45;4.07;;;2.00;99.90;;;;;;5048859;28;20405;-65
2021/04/04 03:18:21;;;;;;;10.02;4.68;;;2.00;99.90;;;;;;5049730;28;20460;-67
2021/04/04 03:20:48;;;;;;;10.13;4.30;;;1.90;99.90;;;;;;5050039;28;20400;-65
2021/04/04 03:23:17;;;;;;;12.30;4.47;;;2.70;99.90;;;;;;5049482;28;20397;-66
2021/04/04 03:25:44;;;;;;;11.38;4.50;;;1.70;99.90;;;;;;5049129;28;20910;-67
2021/04/04 03:28:15;;;;;;;8.83;4.60;;;2.50;99.90;;;;;;5050132;28;20405;-68
2021/04/04 03:30:43;;;;;;;12.93;5.13;;;1.60;99.90;;;;;;5047564;28;20867;-66
2021/04/04 03:33:14;;;;;;;11.80;4.70;;;3.90;99.90;;;;;;5050011;28;20393;-66
2021/04/04 03:35:42;;;;;;;11.02;4.90;;;1.70;99.90;;;;;;5049175;28;20389;-58
2021/04/04 03:38:09;;;;;;;11.55;4.50;;;2.70;99.90;;;;;;5049275;28;20494;-65
2021/04/04 03:40:35;;;;;;;13.05;4.70;;;1.70;99.90;;;;;;5049386;28;21654;-65
2021/04/04 03:43:07;;;;;;;10.83;4.00;;;1.70;99.90;;;;;;5049540;28;20859;-66
2021/04/04 03:45:33;;;;;;;8.88;4.03;;;1.70;99.90;;;;;;5048171;28;20458;-65
2021/04/04 03:48:01;;;;;;;9.93;4.57;;;3.30;99.90;;;;;;5048876;28;20472;-64
2021/04/04 03:50:27;;;;;;;8.85;4.40;;;1.70;99.90;;;;;;5047649;28;20455;-63
2021/04/04 03:52:52;;;;;;;9.80;4.63;;;1.90;99.90;;;;;;5037145;28;20884;-66
2021/04/04 03:55:21;;;;;;;8.60;4.43;;;3.80;99.90;;;;;;5049402;28;20397;-64
2021/04/04 03:57:52;;;;;;;7.97;4.30;;;2.00;99.90;;;;;;5055521;28;20944;-64
2021/04/04 04:00:23;;;;;;;8.85;4.57;;;4.20;99.90;;;;;;5069149;28;20869;-66
2021/04/04 04:02:51;;;;;;;12.50;4.75;;;4.00;99.90;;;;;;5066966;28;20415;-67
2021/04/04 04:05:19;;;;;;;14.27;3.90;;;1.70;99.90;;;;;;5069216;28;20399;-67
2021/04/04 04:07:46;;;;;;;12.10;4.68;;;3.40;99.90;;;;;;5064603;28;20404;-66
2021/04/04 04:10:13;;;;;;;8.35;4.10;;;2.00;99.90;;;;;;5065039;28;20395;-66
2021/04/04 04:12:40;;;;;;;9.37;4.60;;;1.70;99.90;;;;;;5067367;28;20484;-57
2021/04/04 04:15:07;;;;;;;11.73;4.60;;;1.80;99.90;;;;;;5062146;28;20407;-67
2021/04/04 04:17:33;;;;;;;9.20;4.50;;;1.80;99.90;;;;;;5069229;28;20416;-68
2021/04/04 04:20:00;;;;;;;8.87;4.50;;;2.80;99.90;;;;;;5068779;28;21039;-67
2021/04/04 04:22:26;;;;;;;12.10;4.97;;;1.90;99.90;;;;;;5073214;28;20398;-67
2021/04/04 04:24:53;;;;;;;11.17;4.87;;;3.30;99.90;;;;;;5072745;28;20406;-67
2021/04/04 04:27:20;;;;;;;10.75;4.80;;;4.00;99.90;;;;;;5071481;28;20407;-67
2021/04/04 04:29:48;;;;;;;9.25;4.18;;;1.80;99.90;;;;;;5069465;28;20851;-66
2021/04/04 04:32:17;;;;;;;9.35;4.60;;;3.50;99.90;;;;;;5065949;28;20397;-67
2021/04/04 04:34:44;;;;;;;9.05;4.65;;;3.20;99.90;;;;;;5052561;28;20743;-66
2021/04/04 04:37:12;;;;;;;11.60;4.93;;;3.60;99.90;;;;;;5065037;28;20478;-67
2021/04/04 04:39:38;;;;;;;10.20;4.60;;;3.40;99.90;;;;;;5071632;28;20403;-56
2021/04/04 04:42:05;;;;;;;12.02;4.50;;;1.50;99.90;;;;;;5071959;28;20410;-66
2021/04/04 04:44:33;;;;;;;10.17;4.27;;;1.50;99.90;;;;;;5071483;28;20442;-68
2021/04/04 04:46:58;;;;;;;9.23;4.05;;;1.40;99.90;;;;;;5064981;28;21021;-67
2021/04/04 04:49:25;;;;;;;10.15;4.93;;;1.40;99.90;;;;;;5060365;28;20402;-61
2021/04/04 04:51:50;;;;;;;8.95;4.93;;;1.50;99.90;;;;;;5065917;28;20397;-67
2021/04/04 04:54:16;;;;;;;11.17;5.13;;;3.20;99.90;;;;;;5072433;28;20398;-67
2021/04/04 04:56:44;;;;;;;9.07;4.80;;;1.40;99.90;;;;;;5052781;28;20396;-62
2021/04/04 04:59:11;;;;;;;10.90;5.38;;;1.50;99.90;;;;;;5071980;28;20504;-62
2021/04/04 05:01:47;;;;;;;12.63;4.90;;;2.60;99.90;;;;;;5069897;28;20404;-64
2021/04/04 05:04:13;;;;;;;10.35;5.10;;;2.70;99.90;;;;;;5071569;28;20449;-60
2021/04/04 05:06:40;;;;;;;10.82;5.05;;;3.10;99.90;;;;;;5069806;28;20958;-55
2021/04/04 05:09:08;;;;;;;10.15;5.03;;;1.40;99.90;;;;;;5052524;28;20435;-62
2021/04/04 05:11:41;;;;;;;9.32;4.65;;;1.90;99.90;;;;;;5070796;28;20400;-59
2021/04/04 05:14:10;;;;;;;10.02;4.70;;;1.50;99.90;;;;;;5059165;28;20480;-64
2021/04/04 05:16:35;;;;;;;12.80;5.10;;;4.00;99.90;;;;;;5061591;28;20445;-63
2021/04/04 05:19:01;;;;;;;10.30;4.70;;;1.70;99.90;;;;;;5053806;28;21217;-64
2021/04/04 05:21:30;;;;;;;10.97;5.10;;;1.70;99.90;;;;;;5054169;28;20814;-64
2021/04/04 05:23:57;;;;;;;9.25;4.60;;;3.30;99.90;;;;;;5071532;28;20434;-64
2021/04/04 05:26:28;;;;;;;10.20;4.55;;;1.80;99.90;;;;;;5070236;28;20465;-61
2021/04/04 05:28:54;;;;;;;9.45;5.07;;;4.40;99.90;;;;;;5067452;28;20879;-63
2021/04/04 05:31:22;;;;;;;11.98;4.80;;;2.20;99.90;;;;;;5052777;28;20392;-63
2021/04/04 05:33:48;;;;;;;10.32;4.10;;;2.70;99.90;;;;;;5069793;28;20763;-62
2021/04/04 05:36:14;;;;;;;12.27;5.13;;;3.20;99.90;;;;;;5037654;28;20404;-63
2021/04/04 05:38:40;;;;;;;13.43;5.43;;;3.70;99.90;;;;;;5069078;28;20423;-55
2021/04/04 05:41:07;;;;;;;13.27;5.40;;;3.70;99.90;;;;;;5071329;28;20401;-62
2021/04/04 05:43:40;;;;;;;9.20;5.20;;;4.00;99.90;;;;;;5070023;28;20502;-61
2021/04/04 05:46:17;;;;;;;10.90;4.60;;;4.60;99.90;;;;;;5065266;28;20401;-63
2021/04/04 05:49:01;;;;;;;11.20;4.47;;;4.80;99.90;;;;;;5068685;28;20905;-61
2021/04/04 05:51:58;;;;;;;10.35;4.75;;;5.20;99.90;;;;;;5070764;28;20412;-62
2021/04/04 05:54:31;;;;;;;9.30;5.10;;;5.30;99.90;;;;;;5069124;28;20846;-63
2021/04/04 05:57:00;;;;;;;11.35;4.70;;;7.00;99.90;;;;;;5058989;28;20932;-64
2021/04/04 05:59:40;;;;;;;11.43;4.90;;;6.30;99.90;;;;;;5047499;28;20438;-64
2021/04/04 06:02:30;;;;;;;10.10;4.70;;;7.10;99.90;;;;;;5065830;28;20508;-64
2021/04/04 06:05:02;;;;;;;11.18;5.10;;;7.90;99.60;;;;;;5068143;28;20837;-64
2021/04/04 06:08:01;;;;;;;10.68;4.80;;;8.60;96.90;;;;;;5054373;28;20415;-60
2021/04/04 06:10:43;;;;;;;9.87;4.50;;;9.40;94.80;;;;;;5067673;28;20478;-65
2021/04/04 06:13:20;;;;;;;11.48;4.70;;;10.40;92.00;;;;;;5068765;28;20407;-65
2021/04/04 06:16:19;;;;;;;9.95;4.90;;;11.50;83.60;;;;;;5068325;28;20395;-64
2021/04/04 06:19:15;;;;;;;9.75;5.30;;;12.50;71.60;;;;;;5038167;28;20888;-65
2021/04/04 06:22:05;;;;;;;10.23;4.97;;;13.00;68.40;;;;;;5069522;28;20406;-56
2021/04/04 06:24:41;;;;;;;8.68;4.90;;;14.30;65.00;;;;;;5068578;28;20451;-65
2021/04/04 06:27:14;;;;;;;8.95;4.97;;;14.50;61.90;;;;;;5069958;28;20761;-52
2021/04/04 06:33:20;;;;;;;11.43;4.82;;;15.60;56.60;;;;;;4959258;28;20419;-52
2021/04/04 06:36:04;;;;;;;9.05;4.70;;;16.30;54.90;;;;;;5046957;28;20812;-51
2021/04/04 06:39:03;;;;;;;8.52;4.50;;;16.50;52.60;;;;;;5067082;28;20437;-52
2021/04/04 06:41:50;;;;;;;9.00;4.63;;;16.90;52.00;;;;;;5068279;28;20949;-52
2021/04/04 06:44:51;;;;;;;10.03;4.10;;;16.20;51.80;;;;;;5067222;28;20423;-54
2021/04/04 06:47:33;;;;;;;9.60;4.23;;;16.40;50.80;;;;;;5070628;28;20391;-51
2021/04/04 06:50:19;;;;;;;8.45;4.70;;;16.60;49.70;;;;;;5067529;28;21246;-54
2021/04/04 06:53:10;;;;;;;9.10;4.60;;;16.80;48.80;;;;;;5063021;28;20472;-54
2021/04/04 06:55:56;;;;;;;8.70;4.80;;;16.60;49.10;;;;;;5067290;28;20553;-59
2021/04/04 06:59:03;;;;;;;8.23;4.55;;;16.60;49.40;;;;;;5062594;28;20428;-53
2021/04/04 07:02:01;;;;;;;11.40;4.53;;;16.50;48.80;;;;;;5058523;28;20396;-53
2021/04/04 07:05:09;;;;;;;9.50;4.60;;;16.60;48.50;;;;;;5067929;28;20414;-52
2021/04/04 07:08:05;;;;;;;9.15;4.38;;;15.80;49.00;;;;;;4976857;28;20412;-51
2021/04/04 07:10:40;;;;;;;8.90;4.53;;;15.50;51.00;;;;;;4974837;28;20411;-51
2021/04/04 07:14:02;;;;;;;9.25;4.97;;;15.80;49.30;;;;;;5045501;28;20416;-52
2021/04/04 07:16:41;;;;;;;9.20;4.32;;;15.50;50.00;;;;;;4979285;28;20412;-51
2021/04/04 07:19:44;;;;;;;7.87;4.80;;;15.50;49.70;;;;;;5046676;28;20507;-52
2021/04/04 07:22:22;;;;;;;8.73;4.75;;;15.60;50.20;;;;;;5058828;28;20410;-52
2021/04/04 07:25:35;;;;;;;8.50;4.22;;;16.60;49.70;;;;;;5066921;28;20434;-53
2021/04/04 07:28:09;;;;;;;7.72;4.05;;;16.60;48.60;;;;;;5066457;28;21145;-53
2021/04/04 07:30:43;;;;;;;9.73;4.78;;;17.40;46.00;;;;;;5065222;28;20395;-52
2021/04/04 07:33:20;;;;;;;11.65;5.32;;;17.20;46.10;;;;;;5066183;28;20910;-52
2021/04/04 07:36:06;;;;;;;11.23;5.97;;;17.30;46.40;;;;;;5062511;28;20864;-52
2021/04/04 07:38:37;;;;;;;10.57;5.60;;;17.60;45.70;;;;;;5067511;28;20469;-52
2021/04/04 07:41:11;;;;;;;17.45;9.23;;;18.20;45.70;;;;;;5065388;28;21022;-61
2021/04/04 07:43:40;;;;;;;11.90;5.45;;;17.80;45.40;;;;;;5066698;28;20432;-61
2021/04/04 07:46:21;;;;;;;9.15;4.80;;;17.30;46.50;;;;;;5067041;28;20439;-61
2021/04/04 07:48:47;;;;;;;8.05;4.32;;;17.70;46.40;;;;;;5067586;28;20375;-62
2021/04/04 07:51:18;;;;;;;10.07;4.97;;;18.30;45.60;;;;;;5068193;28;20881;-61
2021/04/04 07:54:07;;;;;;;9.10;4.45;;;19.30;44.90;;;;;;5068643;28;20438;-57
2021/04/04 07:56:52;;;;;;;9.33;4.50;;;20.20;42.90;;;;;;5069789;28;20890;-61
2021/04/04 07:59:41;;;;;;;11.35;5.00;;;20.10;42.20;;;;;;5067974;28;20412;-61
2021/04/04 08:02:10;;;;;;;9.40;4.50;;;20.40;42.00;;;;;;5065515;28;20474;-61
2021/04/04 08:04:53;;;;;;;10.00;4.25;;;19.90;41.90;;;;;;5069010;28;20403;-60
2021/04/04 08:07:43;;;;;;;9.00;4.55;;;19.00;42.50;;;;;;5054876;28;20461;-60
2021/04/04 08:10:13;;;;;;;10.23;5.07;;;18.10;43.30;;;;;;5062340;28;20753;-61
2021/04/04 08:13:09;;;;;;;11.18;5.18;;;18.30;43.70;;;;;;5074680;28;20392;-61
2021/04/04 08:15:59;;;;;;;10.43;5.30;;;18.50;43.40;;;;;;5067514;28;20431;-61
2021/04/04 08:18:25;;;;;;;13.80;5.10;;;18.50;43.60;;;;;;5067416;28;20411;-60
2021/04/04 08:20:54;;;;;;;10.20;4.90;;;19.20;43.60;;;;;;5064782;28;20410;-61
2021/04/04 08:23:25;;;;;;;9.70;5.10;;;19.30;42.90;;;;;;5065502;28;20494;-60
2021/04/04 08:25:56;;;;;;;11.75;5.18;;;19.70;43.40;;;;;;5064014;28;20549;-62
2021/04/04 08:28:28;;;;;;;9.32;5.00;;;20.20;43.00;;;;;;5064955;28;20395;-61
2021/04/04 08:30:56;;;;;;;11.80;5.35;;;20.40;42.10;;;;;;5064725;28;20723;-63
2021/04/04 08:33:24;;;;;;;10.00;4.82;;;20.50;41.50;;;;;;5073612;28;20419;-59
2021/04/04 08:35:53;;;;;;;10.85;5.15;;;20.70;41.60;;;;;;5066202;28;22121;-60
2021/04/04 08:38:39;;;;;;;11.75;5.40;;;20.40;41.70;;;;;;5065975;28;20508;-60
2021/04/04 08:41:06;;;;;;;11.07;5.03;;;20.80;41.80;;;;;;5067869;28;20968;-59
2021/04/04 08:43:34;;;;;;;9.80;5.18;;;21.50;40.30;;;;;;5065816;28;20460;-58
2021/04/04 08:46:06;;;;;;;10.80;5.45;;;21.20;40.00;;;;;;5066412;28;20849;-60
2021/04/04 08:48:33;;;;;;;10.52;5.13;;;19.80;41.20;;;;;;5064551;28;20434;-61
2021/04/04 08:51:03;;;;;;;10.68;5.15;;;19.30;42.50;;;;;;5066822;28;20788;-61
2021/04/04 08:53:32;;;;;;;12.70;6.10;;;19.90;42.60;;;;;;5066340;28;20399;-61
2021/04/04 08:56:00;;;;;;;9.57;4.82;;;20.60;41.60;;;;;;5049611;28;20403;-60
2021/04/04 08:58:39;;;;;;;10.80;4.97;;;20.90;40.80;;;;;;5048137;28;20778;-60
2021/04/04 09:01:20;;;;;;;10.18;4.97;;;21.90;40.60;;;;;;5064138;28;20388;-61
2021/04/04 09:03:59;;;;;;;10.15;4.80;;;23.20;39.10;;;;;;5067115;28;20399;-56
2021/04/04 09:06:34;;;;;;;12.07;4.90;;;23.70;38.20;;;;;;5063507;28;20423;-61
2021/04/04 09:08:59;;;;;;;9.63;5.15;;;23.80;37.20;;;;;;5068711;28;20396;-61
2021/04/04 09:11:26;;;;;;;11.80;4.73;;;23.20;37.50;;;;;;5069707;28;20748;-62
2021/04/04 09:13:58;;;;;;;10.68;4.68;;;22.70;37.70;;;;;;5068847;28;20399;-61
2021/04/04 09:16:24;;;;;;;10.23;4.93;;;23.20;37.80;;;;;;5071412;28;20372;-62
2021/04/04 09:18:51;;;;;;;9.02;4.80;;;22.60;37.50;;;;;;5070424;28;20457;-60
2021/04/04 09:21:20;;;;;;;9.63;4.70;;;22.70;38.00;;;;;;5070479;28;20400;-61
2021/04/04 09:23:48;;;;;;;8.32;4.68;;;23.30;37.00;;;;;;5071021;28;20368;-57
2021/04/04 09:26:22;;;;;;;7.80;4.72;;;23.40;37.30;;;;;;5070159;28;20435;-61
2021/04/04 09:28:51;;;;;;;9.77;4.80;;;23.40;36.90;;;;;;5069992;28;20460;-61
2021/04/04 09:31:30;;;;;;;8.90;4.50;;;24.40;36.10;;;;;;5069974;28;20400;-61
2021/04/04 09:34:03;;;;;;;10.07;4.60;;;24.60;35.20;;;;;;5068692;28;20402;-61
2021/04/04 09:36:58;;;;;;;11.55;4.50;;;24.20;35.10;;;;;;5070787;28;20396;-62
2021/04/04 09:39:27;;;;;;;8.98;4.30;;;23.40;35.50;;;;;;5055171;28;20430;-62
2021/04/04 09:41:54;;;;;;;10.30;4.20;;;23.00;35.90;;;;;;5079114;28;20888;-61
2021/04/04 09:44:32;;;;;;;9.48;4.40;;;21.70;35.70;;;;;;5071163;28;20925;-61
2021/04/04 09:46:59;;;;;;;9.43;4.50;;;20.90;37.50;;;;;;5069615;28;20857;-58
2021/04/04 09:49:40;;;;;;;12.52;4.75;;;20.90;37.90;;;;;;5071521;28;20497;-61
2021/04/04 09:52:27;;;;;;;8.75;3.78;;;21.50;37.20;;;;;;5069780;28;21075;-61
2021/04/04 09:54:57;;;;;;;7.97;3.53;;;21.70;36.50;;;;;;5069727;28;20388;-61
2021/04/04 09:57:23;;;;;;;8.10;3.93;;;23.00;34.90;;;;;;5069161;28;20475;-61
2021/04/04 09:59:49;;;;;;;8.35;3.50;;;23.30;34.30;;;;;;5069913;28;20466;-57
2021/04/04 10:02:32;;;;;;;8.88;3.30;;;24.30;32.90;;;;;;5069250;28;20384;-62
2021/04/04 10:04:58;;;;;;;10.90;3.75;;;25.60;31.70;;;;;;5070964;28;20388;-61
2021/04/04 10:07:33;;;;;;;9.25;4.30;;;25.20;31.70;;;;;;5069559;28;20407;-61
2021/04/04 10:10:00;;;;;;;9.93;4.10;;;23.20;32.80;;;;;;5075810;28;20389;-59
2021/04/04 10:12:27;;;;;;;8.10;3.88;;;20.60;34.30;;;;;;5085111;28;20395;-60
2021/04/04 10:15:07;;;;;;;8.27;4.00;;;19.30;36.40;;;;;;5069531;28;20407;-62
2021/04/04 10:17:36;;;;;;;9.68;3.80;;;19.90;36.50;;;;;;5071270;28;20435;-61
2021/04/04 10:20:05;;;;;;;8.82;3.97;;;20.50;35.40;;;;;;5067902;28;20950;-61
2021/04/04 10:22:50;;;;;;;8.20;3.78;;;20.80;35.20;;;;;;5071104;28;20849;-61
2021/04/04 10:25:17;;;;;;;11.40;3.90;;;19.30;35.00;;;;;;5067859;28;20745;-62
2021/04/04 10:27:43;;;;;;;7.10;3.70;;;19.70;36.00;;;;;;5052711;28;20468;-60
2021/04/04 10:30:18;;;;;;;7.30;3.70;;;19.50;35.80;;;;;;5070319;28;20850;-61
2021/04/04 10:32:45;;;;;;;7.85;3.67;;;18.40;36.50;;;;;;5068768;28;20482;-60
2021/04/04 10:35:13;;;;;;;9.82;3.90;;;17.50;37.80;;;;;;5069612;28;20397;-61
2021/04/04 10:37:39;;;;;;;6.93;3.40;;;17.40;37.90;;;;;;5068918;28;20461;-61
2021/04/04 10:40:09;;;;;;;11.18;4.50;;;18.30;37.30;;;;;;5076147;28;20949;-61
2021/04/04 10:42:36;;;;;;;8.55;3.90;;;19.20;36.30;;;;;;5076509;28;20404;-60
2021/04/04 10:45:28;;;;;;;6.90;3.22;;;19.80;36.10;;;;;;5068449;28;20384;-61
2021/04/04 10:48:06;;;;;;;7.27;3.60;;;19.60;34.40;;;;;;5065618;28;20862;-60
2021/04/04 10:50:35;;;;;;;6.80;3.05;;;18.80;34.60;;;;;;5067958;28;20483;-60
2021/04/04 10:53:01;;;;;;;8.45;3.47;;;18.80;35.10;;;;;;5069358;28;20423;-61
2021/04/04 10:55:27;;;;;;;6.35;3.30;;;19.00;35.00;;;;;;5068673;28;20408;-60
2021/04/04 10:57:55;;;;;;;7.25;3.30;;;18.40;35.10;;;;;;5068591;28;20454;-60
2021/04/04 11:00:21;;;;;;;8.97;2.97;;;18.40;34.90;;;;;;5069897;28;20506;-61
2021/04/04 11:02:48;;;;;;;7.27;3.70;;;18.70;34.60;;;;;;5067423;28;20391;-56
2021/04/04 11:05:15;;;;;;;9.02;3.60;;;19.00;34.60;;;;;;5068953;28;20422;-60
2021/04/04 11:07:42;;;;;;;6.53;3.33;;;20.10;33.50;;;;;;5067878;28;20399;-61
2021/04/04 11:10:09;;;;;;;11.47;3.97;;;20.40;33.70;;;;;;5069422;28;20468;-61
2021/04/04 11:12:38;;;;;;;11.70;4.90;;;20.30;34.10;;;;;;5069558;28;20469;-62
2021/04/04 11:15:06;;;;;;;8.80;3.63;;;20.60;34.20;;;;;;5066845;28;20388;-60
2021/04/04 11:17:34;;;;;;;8.13;3.60;;;20.70;33.20;;;;;;5069176;28;20376;-60
2021/04/04 11:20:03;;;;;;;9.38;4.32;;;20.20;33.70;;;;;;5066781;28;20471;-59
2021/04/04 11:22:29;;;;;;;8.88;3.63;;;19.90;34.40;;;;;;5069376;28;20383;-60
2021/04/04 11:25:07;;;;;;;7.77;3.73;;;17.80;35.40;;;;;;5068656;28;20869;-59
2021/04/04 11:27:42;;;;;;;7.63;3.55;;;17.80;36.20;;;;;;5067292;28;20502;-59
2021/04/04 11:30:13;;;;;;;8.23;4.20;;;17.70;36.60;;;;;;5066550;28;21004;-59
2021/04/04 11:32:41;;;;;;;8.00;3.78;;;17.90;37.40;;;;;;5068260;28;20399;-60
2021/04/04 11:35:08;;;;;;;9.50;3.67;;;17.70;37.50;;;;;;5066606;28;20395;-60
2021/04/04 11:37:36;;;;;;;8.95;4.00;;;15.90;38.20;;;;;;5069562;28;20502;-62
2021/04/04 11:40:22;;;;;;;9.60;4.20;;;15.10;39.70;;;;;;5067495;28;20400;-61
2021/04/04 11:43:12;;;;;;;10.02;3.85;;;15.30;40.80;;;;;;5069528;28;20897;-55
2021/04/04 11:45:39;;;;;;;8.10;3.92;;;15.00;40.70;;;;;;5068716;28;20445;-62
2021/04/04 11:48:36;;;;;;;8.18;3.95;;;15.20;40.80;;;;;;5067491;28;20396;-61
2021/04/04 11:51:10;;;;;;;8.52;3.78;;;16.00;39.30;;;;;;5067527;28;20532;-61
2021/04/04 11:53:41;;;;;;;6.70;3.83;;;16.40;39.10;;;;;;5068260;28;20403;-61
2021/04/04 11:56:07;;;;;;;7.65;3.90;;;16.40;39.20;;;;;;5068462;28;20379;-62
2021/04/04 11:58:33;;;;;;;9.70;4.85;;;16.50;39.90;;;;;;5067809;28;20423;-60
2021/04/04 12:00:59;;;;;;;8.90;4.10;;;17.00;39.70;;;;;;5067418;28;20865;-61
2021/04/04 12:03:26;;;;;;;8.00;4.20;;;17.30;38.50;;;;;;5068840;28;20380;-61
2021/04/04 12:05:52;;;;;;;8.95;4.10;;;16.90;38.50;;;;;;5066383;28;20409;-58
2021/04/04 12:08:27;;;;;;;9.40;4.00;;;17.00;39.10;;;;;;5068995;28;20384;-62
2021/04/04 12:10:53;;;;;;;10.30;4.00;;;17.10;39.30;;;;;;5067665;28;20862;-60
2021/04/04 12:13:19;;;;;;;8.40;3.72;;;17.40;38.20;;;;;;5066902;28;20406;-61
2021/04/04 12:15:44;;;;;;;8.33;3.83;;;17.70;37.60;;;;;;5068728;28;20384;-62
2021/04/04 12:18:10;;;;;;;7.93;3.50;;;17.30;37.80;;;;;;5066003;28;21078;-61
2021/04/04 12:20:37;;;;;;;7.53;3.60;;;17.20;37.70;;;;;;5068570;28;20388;-58
2021/04/04 12:23:12;;;;;;;9.05;3.50;;;17.30;37.50;;;;;;5065744;28;20395;-62
2021/04/04 12:25:38;;;;;;;8.07;3.55;;;17.00;37.40;;;;;;5050778;28;20467;-62
2021/04/04 12:28:04;;;;;;;8.40;3.80;;;17.10;37.10;;;;;;5066118;28;20934;-63
2021/04/04 12:30:32;;;;;;;9.30;3.60;;;16.50;36.50;;;;;;5069206;28;20388;-61
2021/04/04 12:33:13;;;;;;;8.63;3.90;;;16.60;37.50;;;;;;5066998;28;20395;-60
2021/04/04 12:35:44;;;;;;;7.25;3.50;;;17.00;37.90;;;;;;5068370;28;20448;-62
2021/04/04 12:38:24;;;;;;;7.07;3.50;;;17.00;38.10;;;;;;5066466;28;20412;-61
2021/04/04 12:40:51;;;;;;;6.50;3.30;;;16.90;37.20;;;;;;5077692;28;20490;-56
2021/04/04 12:43:17;;;;;;;8.18;3.20;;;16.90;36.70;;;;;;5071549;28;20727;-62
2021/04/04 12:45:43;;;;;;;7.10;3.20;;;16.60;35.90;;;;;;5072391;28;20445;-62
2021/04/04 12:48:20;;;;;;;9.88;3.85;;;16.30;37.20;;;;;;5070220;28;20422;-61
2021/04/04 12:50:50;;;;;;;6.80;3.00;;;16.10;37.60;;;;;;5072114;28;20380;-59
2021/04/04 12:53:27;;;;;;;7.38;3.00;;;16.30;37.60;;;;;;5070110;28;20870;-60
2021/04/04 12:55:54;;;;;;;6.18;3.30;;;16.60;38.50;;;;;;5071443;28;20865;-56
2021/04/04 12:58:27;;;;;;;7.28;3.53;;;17.00;38.00;;;;;;5071675;28;20683;-62
2021/04/04 13:00:53;;;;;;;8.10;3.70;;;17.00;37.50;;;;;;5070032;28;20959;-56
2021/04/04 13:03:19;;;;;;;7.50;3.20;;;16.90;37.70;;;;;;5072581;28;20388;-62
2021/04/04 13:05:49;;;;;;;8.10;3.50;;;17.20;37.80;;;;;;5070055;28;20472;-62
2021/04/04 13:08:22;;;;;;;9.47;3.60;;;17.00;37.00;;;;;;5071748;28;20384;-62
2021/04/04 13:10:49;;;;;;;8.13;3.28;;;16.60;36.90;;;;;;5071100;28;20975;-62
2021/04/04 13:13:17;;;;;;;6.80;3.08;;;16.60;36.90;;;;;;5071769;28;20372;-62
2021/04/04 13:15:43;;;;;;;8.80;3.20;;;16.80;36.70;;;;;;5071993;28;20384;-62